createdAt,value
2018-01-07T00:00:34.909Z,41.58
2018-01-07T00:03:01.438Z,36.92
2018-01-07T00:05:27.918Z,45.08
2018-01-07T00:07:55.822Z,40.75
2018-01-07T00:10:22.342Z,44.88
2018-01-07T00:12:48.892Z,47.60
2018-01-07T00:15:15.427Z,39.40
2018-01-07T00:17:42.376Z,40.80
2018-01-07T00:20:08.887Z,41.60
2018-01-07T00:22:35.485Z,35.50
2018-01-07T00:25:02.245Z,38.78
2018-01-07T00:27:29.527Z,33.05
2018-01-07T00:29:56.026Z,40.00
2018-01-07T00:35:24.008Z,44.55
2018-01-07T00:37:50.489Z,43.33
2018-01-07T00:40:17.016Z,41.30
2018-01-07T00:42:44.706Z,43.03
2018-01-07T00:45:11.263Z,39.25
2018-01-07T00:47:37.791Z,38.70
2018-01-07T00:50:04.516Z,33.83
2018-01-07T00:52:31.446Z,34.40
2018-01-07T00:54:57.960Z,35.03
2018-01-07T00:57:25.265Z,35.10
2018-01-07T00:59:51.850Z,36.22
2018-01-07T01:02:19.155Z,38.65
2018-01-07T01:04:45.685Z,37.03
2018-01-07T01:07:12.227Z,36.40
2018-01-07T01:09:38.741Z,33.47
2018-01-07T01:12:05.255Z,30.88
2018-01-07T01:14:31.871Z,30.92
2018-01-07T01:16:59.081Z,33.22
2018-01-07T01:19:26.439Z,32.75
2018-01-07T01:21:52.894Z,33.80
2018-01-07T01:24:19.613Z,38.33
2018-01-07T01:26:46.076Z,34.78
2018-01-07T01:29:12.605Z,40.75
2018-01-07T01:31:39.944Z,36.45
2018-01-07T01:34:06.414Z,34.55
2018-01-07T01:36:33.655Z,35.05
2018-01-07T01:39:00.887Z,33.95
2018-01-07T01:41:27.435Z,27.65
2018-01-07T01:43:53.876Z,29.37
2018-01-07T01:46:21.120Z,28.10
2018-01-07T01:48:47.704Z,32.22
2018-01-07T01:51:14.195Z,33.50
2018-01-07T01:53:41.449Z,32.78
2018-01-07T01:56:08.754Z,28.40
2018-01-07T01:58:35.278Z,27.70
2018-01-07T02:01:01.771Z,29.52
2018-01-07T02:03:29.128Z,30.62
2018-01-07T02:05:55.711Z,32.67
2018-01-07T02:08:22.952Z,28.65
2018-01-07T02:10:49.481Z,28.65
2018-01-07T02:13:15.935Z,26.87
2018-01-07T02:15:42.372Z,28.67
2018-01-07T02:18:08.847Z,29.85
2018-01-07T02:20:35.291Z,24.10
2018-01-07T02:23:02.577Z,26.17
2018-01-07T02:25:29.033Z,25.35
2018-01-07T02:27:56.284Z,25.02
2018-01-07T02:30:23.549Z,28.17
2018-01-07T02:32:50.047Z,33.83
2018-01-07T02:35:16.539Z,30.65
2018-01-07T02:37:43.767Z,32.97
2018-01-07T02:40:10.196Z,34.00
2018-01-07T02:42:36.773Z,30.88
2018-01-07T02:45:03.984Z,39.20
2018-01-07T02:47:30.462Z,31.92
2018-01-07T02:49:57.807Z,33.40
2018-01-07T02:52:25.062Z,33.40
2018-01-07T02:54:52.351Z,39.33
2018-01-07T02:57:19.559Z,42.55
2018-01-07T02:59:46.845Z,28.08
2018-01-07T03:02:13.296Z,42.47
2018-01-07T03:04:39.899Z,35.97
2018-01-07T03:07:06.363Z,50.85
2018-01-07T03:09:32.804Z,52.28
2018-01-07T03:11:59.386Z,40.88
2018-01-07T03:14:26.603Z,41.47
2018-01-07T03:16:53.188Z,37.78
2018-01-07T03:19:19.671Z,35.20
2018-01-07T03:21:46.092Z,45.30
2018-01-07T03:24:12.583Z,40.53
2018-01-07T03:26:39.858Z,80.78
2018-01-07T03:29:06.335Z,42.53
2018-01-07T03:31:32.787Z,43.22
2018-01-07T03:33:59.277Z,44.95
2018-01-07T03:36:25.715Z,59.35
2018-01-07T03:38:52.925Z,85.20
2018-01-07T03:41:20.119Z,53.80
2018-01-07T03:43:46.641Z,77.60
2018-01-07T03:46:13.108Z,86.53
2018-01-07T03:48:39.578Z,93.97
2018-01-07T03:51:06.791Z,89.53
2018-01-07T03:53:33.300Z,291.00
2018-01-07T03:55:59.830Z,59.75
2018-01-07T03:58:26.277Z,155.50
2018-01-07T04:00:52.798Z,95.12
2018-01-07T04:03:19.313Z,84.00
2018-01-07T04:05:45.756Z,68.95
2018-01-07T04:08:12.220Z,150.57
2018-01-07T04:10:38.717Z,62.15
2018-01-07T04:13:05.190Z,71.60
2018-01-07T04:15:32.365Z,105.10
2018-01-07T04:17:59.589Z,104.93
2018-01-07T04:20:26.947Z,54.20
2018-01-07T04:22:53.516Z,88.35
2018-01-07T04:25:19.980Z,128.70
2018-01-07T04:27:46.496Z,67.97
2018-01-07T04:30:13.845Z,81.47
2018-01-07T04:32:40.400Z,57.35
2018-01-07T04:35:06.989Z,87.57
2018-01-07T04:37:33.548Z,79.80
2018-01-07T04:40:00.738Z,63.08
2018-01-07T04:42:27.287Z,86.03
2018-01-07T04:44:53.791Z,82.07
2018-01-07T04:47:20.372Z,65.20
2018-01-07T04:49:46.883Z,46.47
2018-01-07T04:52:13.435Z,45.95
2018-01-07T04:54:40.667Z,68.87
2018-01-07T04:57:07.170Z,114.70
2018-01-07T04:59:34.382Z,129.65
2018-01-07T05:02:00.899Z,52.95
2018-01-07T05:04:27.463Z,55.10
2018-01-07T05:06:53.945Z,87.37
2018-01-07T05:09:20.439Z,49.85
2018-01-07T05:11:46.915Z,43.55
2018-01-07T05:14:13.442Z,55.35
2018-01-07T05:16:39.890Z,43.30
2018-01-07T05:19:06.355Z,75.25
2018-01-07T05:21:32.904Z,97.85
2018-01-07T05:23:59.402Z,87.35
2018-01-07T05:26:25.893Z,86.93
2018-01-07T05:28:53.078Z,57.28
2018-01-07T05:31:19.752Z,94.25
2018-01-07T05:33:46.332Z,77.47
2018-01-07T05:36:12.811Z,119.93
2018-01-07T05:38:39.312Z,74.15
2018-01-07T05:41:05.779Z,68.78
2018-01-07T05:43:32.262Z,65.70
2018-01-07T05:45:59.485Z,54.05
2018-01-07T05:48:25.948Z,87.62
2018-01-07T05:50:52.434Z,55.45
2018-01-07T05:53:18.962Z,47.45
2018-01-07T05:55:45.453Z,46.47
2018-01-07T05:58:12.663Z,57.45
2018-01-07T06:00:39.112Z,73.90
2018-01-07T06:03:05.641Z,68.28
2018-01-07T06:05:32.980Z,69.05
2018-01-07T06:07:59.447Z,71.12
2018-01-07T06:10:26.652Z,64.82
2018-01-07T06:12:53.076Z,113.22
2018-01-07T06:15:19.632Z,74.05
2018-01-07T06:17:46.110Z,84.10
2018-01-07T06:20:12.623Z,60.88
2018-01-07T06:22:39.104Z,53.13
2018-01-07T06:25:05.749Z,63.90
2018-01-07T06:27:32.189Z,111.28
2018-01-07T06:29:58.779Z,78.62
2018-01-07T06:32:25.998Z,82.25
2018-01-07T06:34:52.514Z,116.10
2018-01-07T06:37:18.992Z,62.97
2018-01-07T06:39:46.202Z,47.22
2018-01-07T06:42:12.672Z,83.90
2018-01-07T06:44:39.937Z,54.33
2018-01-07T06:47:07.147Z,83.40
2018-01-07T06:49:33.603Z,89.87
2018-01-07T06:52:00.120Z,44.25
2018-01-07T06:54:26.623Z,46.80
2018-01-07T06:56:53.110Z,46.88
2018-01-07T06:59:22.396Z,50.25
2018-01-07T07:01:48.882Z,64.37
2018-01-07T07:04:15.391Z,58.83
2018-01-07T07:06:42.579Z,44.85
2018-01-07T07:09:09.072Z,44.80
2018-01-07T07:14:35.280Z,41.03
2018-01-07T07:17:01.678Z,55.63
2018-01-07T07:19:28.133Z,48.00
2018-01-07T07:21:55.359Z,51.13
2018-01-07T07:24:21.746Z,51.05
2018-01-07T07:26:48.190Z,41.05
2018-01-07T07:29:14.673Z,42.55
2018-01-07T07:31:41.104Z,42.47
2018-01-07T07:34:08.295Z,43.20
2018-01-07T07:36:34.740Z,43.22
2018-01-07T07:39:01.193Z,39.78
2018-01-07T07:41:27.686Z,46.10
2018-01-07T07:43:54.113Z,36.15
2018-01-07T07:46:20.649Z,43.70
2018-01-07T07:48:47.047Z,41.42
2018-01-07T07:51:14.274Z,36.03
2018-01-07T07:53:40.723Z,34.92
2018-01-07T07:56:07.892Z,37.90
2018-01-07T07:58:35.122Z,38.85
2018-01-07T08:01:02.279Z,37.25
2018-01-07T08:03:29.461Z,39.15
2018-01-07T08:05:55.893Z,33.17
2018-01-07T08:08:22.353Z,39.08
2018-01-07T08:10:48.799Z,36.97
2018-01-07T08:13:15.237Z,33.95
2018-01-07T08:15:41.729Z,35.13
2018-01-07T08:18:08.134Z,34.63
2018-01-07T08:20:35.313Z,33.00
2018-01-07T08:23:01.775Z,31.60
2018-01-07T08:25:28.203Z,34.25
2018-01-07T08:27:54.626Z,34.10
2018-01-07T08:30:21.037Z,27.50
2018-01-07T08:32:47.476Z,31.70
2018-01-07T08:35:13.944Z,24.37
2018-01-07T08:37:40.422Z,24.30
2018-01-07T08:40:06.877Z,28.95
2018-01-07T08:42:33.295Z,26.42
2018-01-07T08:44:59.743Z,25.45
2018-01-07T08:47:26.131Z,22.98
2018-01-07T08:49:53.325Z,21.02
2018-01-07T08:52:19.723Z,26.73
2018-01-07T08:54:46.931Z,22.55
2018-01-07T08:57:14.077Z,20.55
2018-01-07T08:59:40.498Z,19.70
2018-01-07T09:02:07.033Z,21.33
2018-01-07T09:04:33.427Z,20.83
2018-01-07T09:06:59.994Z,23.08
2018-01-07T09:09:26.404Z,21.42
2018-01-07T09:11:52.901Z,25.83
2018-01-07T09:14:19.336Z,20.55
2018-01-07T09:16:45.864Z,22.60
2018-01-07T09:19:12.319Z,20.90
2018-01-07T09:21:39.479Z,25.30
2018-01-07T09:24:05.907Z,23.65
2018-01-07T09:26:33.024Z,22.00
2018-01-07T09:28:59.614Z,23.05
2018-01-07T09:31:25.993Z,25.83
2018-01-07T09:33:52.436Z,20.50
2018-01-07T09:36:19.704Z,23.35
2018-01-07T09:38:46.161Z,22.00
2018-01-07T09:41:12.735Z,24.67
2018-01-07T09:43:39.211Z,21.25
2018-01-07T09:46:05.670Z,16.80
2018-01-07T09:48:32.195Z,21.60
2018-01-07T09:50:58.684Z,23.67
2018-01-07T09:53:25.924Z,15.18
2018-01-07T09:55:52.349Z,11.02
2018-01-07T09:58:18.942Z,22.85
2018-01-07T10:00:45.407Z,12.70
2018-01-07T10:03:11.921Z,23.12
2018-01-07T10:05:38.454Z,25.92
2018-01-07T10:08:04.901Z,10.52
2018-01-07T10:10:31.438Z,22.52
2018-01-07T10:12:57.947Z,28.95
2018-01-07T10:15:24.425Z,27.48
2018-01-07T10:17:50.916Z,22.13
2018-01-07T10:20:17.432Z,26.90
2018-01-07T10:22:44.606Z,28.92
2018-01-07T10:25:11.917Z,28.55
2018-01-07T10:27:38.355Z,26.90
2018-01-07T10:30:05.590Z,28.05
2018-01-07T10:35:29.841Z,20.45
2018-01-07T10:37:57.154Z,25.67
2018-01-07T10:40:24.368Z,21.58
2018-01-07T10:42:51.812Z,23.02
2018-01-07T10:45:18.263Z,22.95
2018-01-07T10:47:44.729Z,22.37
2018-01-07T10:50:11.898Z,20.85
2018-01-07T10:52:38.368Z,23.25
2018-01-07T10:55:05.615Z,24.40
2018-01-07T10:57:32.114Z,21.50
2018-01-07T10:59:58.603Z,22.30
2018-01-07T11:02:33.002Z,18.15
2018-01-07T11:05:00.320Z,19.48
2018-01-07T11:07:26.750Z,18.70
2018-01-07T11:09:53.304Z,16.52
2018-01-07T11:12:19.739Z,16.42
2018-01-07T11:14:46.206Z,19.70
2018-01-07T11:17:12.682Z,16.02
2018-01-07T11:19:39.922Z,13.75
2018-01-07T11:22:07.103Z,16.20
2018-01-07T11:24:33.548Z,10.75
2018-01-07T11:26:59.995Z,13.30
2018-01-07T11:29:26.503Z,17.33
2018-01-07T11:31:53.042Z,14.50
2018-01-07T11:34:19.484Z,17.25
2018-01-07T11:36:45.891Z,18.02
2018-01-07T11:39:12.445Z,16.58
2018-01-07T11:41:38.879Z,14.52
2018-01-07T11:44:05.304Z,14.48
2018-01-07T11:46:31.777Z,13.55
2018-01-07T11:48:58.215Z,14.18
2018-01-07T11:51:24.689Z,14.93
2018-01-07T11:53:51.462Z,11.73
2018-01-07T11:56:17.892Z,16.60
2018-01-07T11:58:44.568Z,16.30
2018-01-07T12:01:11.018Z,12.45
2018-01-07T12:03:37.826Z,17.50
2018-01-07T12:06:05.071Z,15.10
2018-01-07T12:08:31.516Z,17.87
2018-01-07T12:10:57.916Z,13.18
2018-01-07T12:13:24.402Z,16.48
2018-01-07T12:15:51.577Z,12.70
2018-01-07T12:18:18.068Z,14.50
2018-01-07T12:20:44.498Z,15.45
2018-01-07T12:23:10.958Z,12.68
2018-01-07T12:25:38.250Z,18.52
2018-01-07T12:28:04.717Z,18.10
2018-01-07T12:30:31.157Z,12.48
2018-01-07T12:32:57.657Z,19.23
2018-01-07T12:35:24.987Z,17.85
2018-01-07T12:37:51.401Z,14.50
2018-01-07T12:40:17.841Z,16.65
2018-01-07T12:42:44.282Z,15.63
2018-01-07T12:45:10.717Z,16.02
2018-01-07T12:47:37.268Z,17.45
2018-01-07T12:50:03.771Z,20.42
2018-01-07T12:52:30.418Z,17.33
2018-01-07T12:54:58.440Z,17.58
2018-01-07T12:57:24.888Z,13.48
2018-01-07T12:59:52.132Z,17.37
2018-01-07T13:02:19.348Z,18.58
2018-01-07T13:04:46.602Z,21.02
2018-01-07T13:07:13.520Z,18.35
2018-01-07T13:09:40.110Z,15.55
2018-01-07T13:12:07.950Z,19.70
2018-01-07T13:14:34.382Z,10.80
2018-01-07T13:17:00.873Z,16.30
2018-01-07T13:19:27.367Z,17.83
2018-01-07T13:21:53.955Z,14.70
2018-01-07T13:24:20.679Z,11.98
2018-01-07T13:26:47.197Z,13.38
2018-01-07T13:29:14.609Z,17.65
2018-01-07T13:31:41.050Z,15.38
2018-01-07T13:34:07.451Z,15.05
2018-01-07T13:36:34.151Z,18.23
2018-01-07T13:39:00.981Z,13.23
2018-01-07T13:41:27.521Z,18.35
2018-01-07T13:43:54.208Z,12.68
2018-01-07T13:46:20.977Z,14.63
2018-01-07T13:48:47.616Z,15.75
2018-01-07T13:51:14.081Z,15.00
2018-01-07T13:53:41.484Z,14.48
2018-01-07T13:56:08.249Z,13.77
2018-01-07T13:58:34.759Z,11.43
2018-01-07T14:01:01.353Z,16.02
2018-01-07T14:03:28.706Z,17.50
2018-01-07T14:05:55.952Z,15.48
2018-01-07T14:08:23.210Z,15.55
2018-01-07T14:10:49.693Z,17.40
2018-01-07T14:13:16.339Z,12.48
2018-01-07T14:15:43.101Z,13.80
2018-01-07T14:18:09.548Z,18.20
2018-01-07T14:20:36.774Z,15.85
2018-01-07T14:23:03.259Z,12.95
2018-01-07T14:25:29.696Z,15.10
2018-01-07T14:27:57.014Z,15.52
2018-01-07T14:30:23.471Z,7.60
2018-01-07T14:32:50.089Z,12.95
2018-01-07T14:35:16.593Z,10.80
2018-01-07T14:37:43.094Z,12.65
2018-01-07T14:40:09.539Z,11.95
2018-01-07T14:42:36.183Z,12.05
2018-01-07T14:45:02.856Z,16.10
2018-01-07T14:50:25.785Z,15.45
2018-01-07T14:52:52.423Z,11.00
2018-01-07T14:55:19.750Z,13.15
2018-01-07T14:57:46.575Z,9.80
2018-01-07T15:00:14.890Z,14.93
2018-01-07T15:02:41.651Z,16.42
2018-01-07T15:05:09.298Z,15.07
2018-01-07T15:07:36.872Z,13.73
2018-01-07T15:10:04.193Z,10.40
2018-01-07T15:12:30.795Z,13.65
2018-01-07T15:14:57.276Z,14.98
2018-01-07T15:17:24.070Z,13.38
2018-01-07T15:19:50.750Z,13.35
2018-01-07T15:22:17.536Z,14.40
2018-01-07T15:24:44.048Z,14.10
2018-01-07T15:27:11.565Z,10.57
2018-01-07T15:29:38.095Z,12.43
2018-01-07T15:32:04.664Z,12.98
2018-01-07T15:34:31.234Z,8.75
2018-01-07T15:36:58.076Z,11.95
2018-01-07T15:39:24.656Z,6.75
2018-01-07T15:41:51.185Z,8.25
2018-01-07T15:44:18.620Z,10.13
2018-01-07T15:46:45.140Z,6.03
2018-01-07T15:49:11.711Z,9.35
2018-01-07T15:51:38.304Z,5.47
2018-01-07T15:54:04.806Z,10.00
2018-01-07T15:56:31.395Z,8.63
2018-01-07T15:58:57.895Z,9.68
2018-01-07T16:01:24.515Z,7.90
2018-01-07T16:03:51.052Z,8.48
2018-01-07T16:06:17.680Z,8.65
2018-01-07T16:11:40.058Z,7.82
2018-01-07T16:14:07.288Z,8.38
2018-01-07T16:16:34.017Z,10.30
2018-01-07T16:19:01.536Z,8.93
2018-01-07T16:21:28.147Z,9.88
2018-01-07T16:23:55.626Z,15.13
2018-01-07T16:26:22.164Z,10.65
2018-01-07T16:28:48.839Z,10.95
2018-01-07T16:31:15.509Z,8.75
2018-01-07T16:33:42.892Z,16.05
2018-01-07T16:36:09.387Z,10.48
2018-01-07T16:38:36.002Z,11.18
2018-01-07T16:41:02.528Z,8.68
2018-01-07T16:43:29.103Z,10.68
2018-01-07T16:45:55.866Z,14.90
2018-01-07T16:48:23.426Z,5.00
2018-01-07T16:50:52.094Z,13.60
2018-01-07T16:53:19.116Z,7.72
2018-01-07T16:55:45.689Z,17.02
2018-01-07T16:58:12.816Z,12.25
2018-01-07T17:00:39.413Z,11.23
2018-01-07T17:03:05.970Z,12.00
2018-01-07T17:05:32.947Z,14.52
2018-01-07T17:08:00.320Z,15.32
2018-01-07T17:10:28.731Z,13.88
2018-01-07T17:12:55.473Z,17.37
2018-01-07T17:15:22.040Z,15.60
2018-01-07T17:17:48.658Z,15.98
2018-01-07T17:20:15.157Z,17.10
2018-01-07T17:22:41.706Z,11.43
2018-01-07T17:25:08.314Z,16.48
2018-01-07T17:27:35.540Z,16.33
2018-01-07T17:30:02.067Z,19.23
2018-01-07T17:32:28.637Z,17.60
2018-01-07T17:34:55.280Z,15.25
2018-01-07T17:37:21.955Z,11.10
2018-01-07T17:39:48.507Z,17.55
2018-01-07T17:42:15.072Z,14.15
2018-01-07T17:44:42.361Z,14.75
2018-01-07T17:47:08.925Z,14.43
2018-01-07T17:49:35.499Z,12.48
2018-01-07T17:52:03.106Z,15.05
2018-01-07T17:54:29.835Z,13.55
2018-01-07T17:56:56.370Z,17.25
2018-01-07T17:59:23.298Z,16.00
2018-01-07T18:01:50.173Z,15.88
2018-01-07T18:04:16.741Z,13.98
2018-01-07T18:06:43.252Z,11.82
2018-01-07T18:09:09.858Z,14.48
2018-01-07T18:11:36.431Z,12.27
2018-01-07T18:14:03.031Z,11.12
2018-01-07T18:16:36.404Z,12.95
2018-01-07T18:19:03.726Z,15.95
2018-01-07T18:21:30.494Z,15.15
2018-01-07T18:23:57.883Z,10.07
2018-01-07T18:26:24.518Z,7.90
2018-01-07T18:28:50.991Z,15.27
2018-01-07T18:31:17.680Z,11.30
2018-01-07T18:33:44.276Z,14.02
2018-01-07T18:36:10.861Z,11.50
2018-01-07T18:38:37.541Z,13.13
2018-01-07T18:41:04.105Z,11.65
2018-01-07T18:43:32.435Z,13.48
2018-01-07T18:45:59.282Z,8.10
2018-01-07T18:48:25.772Z,12.37
2018-01-07T18:50:52.339Z,12.52
2018-01-07T18:53:19.072Z,14.70
2018-01-07T18:55:45.608Z,11.52
2018-01-07T18:58:12.196Z,11.63
2018-01-07T19:00:39.091Z,13.25
2018-01-07T19:03:05.708Z,15.18
2018-01-07T19:05:33.375Z,13.52
2018-01-07T19:07:59.973Z,10.98
2018-01-07T19:10:26.592Z,11.07
2018-01-07T19:12:53.218Z,12.98
2018-01-07T19:15:19.947Z,13.60
2018-01-07T19:17:46.590Z,13.32
2018-01-07T19:20:13.272Z,16.12
2018-01-07T19:22:40.567Z,8.68
2018-01-07T19:25:07.239Z,9.13
2018-01-07T19:27:33.871Z,12.50
2018-01-07T19:30:00.503Z,11.50
2018-01-07T19:32:27.201Z,10.52
2018-01-07T19:34:53.841Z,12.40
2018-01-07T19:37:20.328Z,13.70
2018-01-07T19:39:46.936Z,14.80
2018-01-07T19:42:13.441Z,14.30
2018-01-07T19:44:40.718Z,9.63
2018-01-07T19:47:07.331Z,9.05
2018-01-07T19:49:34.367Z,15.23
2018-01-07T19:52:00.906Z,16.05
2018-01-07T19:54:28.188Z,11.18
2018-01-07T19:56:54.855Z,12.32
2018-01-07T19:59:21.711Z,11.43
2018-01-07T20:01:48.403Z,12.40
2018-01-07T20:04:15.150Z,18.73
2018-01-07T20:06:41.962Z,15.88
2018-01-07T20:09:08.523Z,16.85
2018-01-07T20:11:35.034Z,16.48
2018-01-07T20:14:01.610Z,18.02
2018-01-07T20:16:28.138Z,11.70
2018-01-07T20:18:54.702Z,18.55
2018-01-07T20:21:21.309Z,12.98
2018-01-07T20:23:48.105Z,14.63
2018-01-07T20:26:15.498Z,17.23
2018-01-07T20:28:42.246Z,13.93
2018-01-07T20:31:08.922Z,17.40
2018-01-07T20:33:35.587Z,18.05
2018-01-07T20:36:02.201Z,12.35
2018-01-07T20:38:28.830Z,15.40
2018-01-07T20:40:55.485Z,13.25
2018-01-07T20:43:22.073Z,6.82
2018-01-07T20:45:48.650Z,15.35
2018-01-07T20:48:15.311Z,23.77
2018-01-07T20:50:41.937Z,12.48
2018-01-07T20:53:09.279Z,18.33
2018-01-07T20:55:35.784Z,16.92
2018-01-07T20:58:03.680Z,20.55
2018-01-07T21:00:31.212Z,20.92
2018-01-07T21:02:57.853Z,13.27
2018-01-07T21:05:24.524Z,19.15
2018-01-07T21:07:51.027Z,12.77
2018-01-07T21:10:17.713Z,23.50
2018-01-07T21:12:44.439Z,16.45
2018-01-07T21:15:11.131Z,23.00
2018-01-07T21:17:38.313Z,19.87
2018-01-07T21:20:05.926Z,25.08
2018-01-07T21:22:32.947Z,22.80
2018-01-07T21:24:59.841Z,19.40
2018-01-07T21:27:26.633Z,15.77
2018-01-07T21:29:54.347Z,15.05
2018-01-07T21:32:22.044Z,14.57
2018-01-07T21:34:49.502Z,15.68
2018-01-07T21:37:17.128Z,16.80
2018-01-07T21:39:43.890Z,24.37
2018-01-07T21:42:10.587Z,18.02
2018-01-07T21:44:37.226Z,22.45
2018-01-07T21:47:04.161Z,19.40
2018-01-07T21:49:31.883Z,19.67
2018-01-07T21:51:58.827Z,16.55
2018-01-07T21:54:25.439Z,20.33
2018-01-07T21:56:52.041Z,15.32
2018-01-07T21:59:18.930Z,25.35
2018-01-07T22:01:57.913Z,9.85
2018-01-07T22:04:37.046Z,16.27
2018-01-07T22:07:04.152Z,14.75
2018-01-07T22:09:30.989Z,19.37
2018-01-07T22:11:58.410Z,14.30
2018-01-07T22:14:25.018Z,23.05
2018-01-07T22:16:51.692Z,13.10
2018-01-07T22:19:18.248Z,19.30
2018-01-07T22:21:44.748Z,42.25
2018-01-07T22:24:11.240Z,24.55
2018-01-07T22:26:37.811Z,22.13
2018-01-07T22:29:04.372Z,24.10
2018-01-07T22:31:30.930Z,22.48
2018-01-07T22:33:59.059Z,21.00
2018-01-07T22:36:25.524Z,19.65
2018-01-07T22:38:52.134Z,19.80
2018-01-07T22:41:18.646Z,23.10
2018-01-07T22:43:45.355Z,18.08
2018-01-07T22:46:11.927Z,17.77
2018-01-07T22:48:38.633Z,22.95
2018-01-07T22:51:06.034Z,26.02
2018-01-07T22:53:32.776Z,19.73
2018-01-07T22:55:59.333Z,22.10
2018-01-07T22:58:25.952Z,21.52
2018-01-07T23:00:52.563Z,24.52
2018-01-07T23:03:19.285Z,22.20
2018-01-07T23:05:46.804Z,24.92
2018-01-07T23:08:14.231Z,22.87
2018-01-07T23:10:40.881Z,20.85
2018-01-07T23:13:07.608Z,22.83
2018-01-07T23:15:34.346Z,30.85
2018-01-07T23:18:00.986Z,23.25
2018-01-07T23:20:27.814Z,28.95
2018-01-07T23:22:54.479Z,18.60
2018-01-07T23:25:21.401Z,30.65
2018-01-07T23:27:48.038Z,25.62
2018-01-07T23:30:14.686Z,26.50
2018-01-07T23:32:41.237Z,30.92
2018-01-07T23:35:07.876Z,25.00
2018-01-07T23:37:34.391Z,24.60
2018-01-07T23:40:01.018Z,29.77
2018-01-07T23:42:27.495Z,18.77
2018-01-07T23:44:54.007Z,26.67
2018-01-07T23:47:21.996Z,25.48
2018-01-07T23:49:48.470Z,22.00
2018-01-07T23:52:15.870Z,28.92
2018-01-07T23:54:42.398Z,16.48
2018-01-07T23:57:08.914Z,22.92
2018-01-07T23:59:35.410Z,18.25
